createdAt,value
2017-10-26T00:01:21.021Z,8.23
2017-10-26T00:03:49.325Z,7.73
2017-10-26T00:06:16.816Z,8.67
2017-10-26T00:08:44.321Z,7.37
2017-10-26T00:11:12.635Z,7.70
2017-10-26T00:13:40.132Z,7.07
2017-10-26T00:16:09.180Z,7.57
2017-10-26T00:18:36.674Z,7.97
2017-10-26T00:21:04.201Z,8.13
2017-10-26T00:23:31.911Z,6.40
2017-10-26T00:25:59.432Z,8.17
2017-10-26T00:28:26.940Z,8.03
2017-10-26T00:30:55.236Z,8.63
2017-10-26T00:33:22.724Z,7.53
2017-10-26T00:35:50.230Z,8.67
2017-10-26T00:38:18.529Z,8.83
2017-10-26T00:40:46.030Z,8.23
2017-10-26T00:43:13.557Z,8.80
2017-10-26T00:45:41.055Z,8.50
2017-10-26T00:48:08.571Z,9.37
2017-10-26T00:50:36.096Z,8.90
2017-10-26T00:53:04.373Z,7.50
2017-10-26T00:55:31.912Z,7.20
2017-10-26T00:57:59.408Z,8.83
2017-10-26T01:00:26.983Z,9.43
2017-10-26T01:02:54.532Z,10.27
2017-10-26T01:05:22.045Z,8.90
2017-10-26T01:07:49.552Z,9.63
2017-10-26T01:10:17.048Z,10.40
2017-10-26T01:12:44.594Z,11.40
2017-10-26T01:15:12.089Z,10.00
2017-10-26T01:17:40.381Z,8.70
2017-10-26T01:20:07.936Z,9.67
2017-10-26T01:22:35.441Z,10.10
2017-10-26T01:25:03.056Z,10.10
2017-10-26T01:27:30.554Z,10.67
2017-10-26T01:29:58.094Z,9.93
2017-10-26T01:32:25.589Z,11.57
2017-10-26T01:34:53.889Z,10.80
2017-10-26T01:37:22.177Z,10.60
2017-10-26T01:39:49.689Z,11.37
2017-10-26T01:42:17.206Z,9.70
2017-10-26T01:44:44.722Z,10.83
2017-10-26T01:47:13.018Z,10.83
2017-10-26T01:49:41.304Z,11.97
2017-10-26T01:52:08.826Z,11.73
2017-10-26T01:54:36.331Z,11.47
2017-10-26T01:57:03.864Z,11.83
2017-10-26T01:59:32.133Z,11.53
2017-10-26T02:02:00.400Z,12.50
2017-10-26T02:04:28.684Z,13.17
2017-10-26T02:06:56.956Z,12.50
2017-10-26T02:09:25.248Z,10.90
2017-10-26T02:11:52.844Z,11.87
2017-10-26T02:14:20.464Z,13.40
2017-10-26T02:16:48.022Z,13.37
2017-10-26T02:19:15.536Z,13.97
2017-10-26T02:21:43.081Z,14.27
2017-10-26T02:24:10.580Z,14.40
2017-10-26T02:26:38.868Z,13.90
2017-10-26T02:29:19.197Z,13.53
2017-10-26T02:31:46.733Z,13.43
2017-10-26T02:34:14.226Z,13.53
2017-10-26T02:36:42.517Z,13.20
2017-10-26T02:39:10.021Z,13.50
2017-10-26T02:41:37.556Z,12.90
2017-10-26T02:44:05.082Z,13.10
2017-10-26T02:46:33.351Z,13.80
2017-10-26T02:49:01.643Z,12.70
2017-10-26T02:51:29.149Z,11.70
2017-10-26T02:53:56.679Z,12.50
2017-10-26T02:56:24.182Z,12.67
2017-10-26T02:58:51.674Z,12.37
2017-10-26T03:01:19.198Z,12.07
2017-10-26T03:03:46.701Z,10.87
2017-10-26T03:06:14.253Z,11.27
2017-10-26T03:08:41.781Z,11.63
2017-10-26T03:11:09.299Z,8.40
2017-10-26T03:13:36.826Z,12.67
2017-10-26T03:16:04.365Z,12.10
2017-10-26T03:18:32.654Z,10.57
2017-10-26T03:21:00.149Z,11.03
2017-10-26T03:23:28.078Z,11.03
2017-10-26T03:25:55.593Z,11.33
2017-10-26T03:28:23.094Z,11.17
2017-10-26T03:30:50.608Z,10.90
2017-10-26T03:33:18.109Z,9.90
2017-10-26T03:35:45.664Z,11.30
2017-10-26T03:38:13.928Z,10.23
2017-10-26T03:40:42.243Z,11.77
2017-10-26T03:43:09.732Z,11.10
2017-10-26T03:45:38.759Z,11.57
2017-10-26T03:48:07.047Z,11.10
2017-10-26T03:50:34.541Z,11.43
2017-10-26T03:53:02.037Z,11.07
2017-10-26T03:55:30.327Z,14.13
2017-10-26T03:57:58.609Z,14.47
2017-10-26T04:00:26.128Z,13.73
2017-10-26T04:02:53.619Z,14.30
2017-10-26T04:05:21.916Z,13.63
2017-10-26T04:07:49.424Z,15.77
2017-10-26T04:10:16.956Z,15.70
2017-10-26T04:12:44.494Z,14.03
2017-10-26T04:15:12.022Z,14.40
2017-10-26T04:17:39.555Z,14.83
2017-10-26T04:20:07.068Z,14.40
2017-10-26T04:22:34.596Z,14.30
2017-10-26T04:25:02.892Z,14.50
2017-10-26T04:27:30.427Z,14.20
2017-10-26T04:29:58.716Z,13.67
2017-10-26T04:32:26.265Z,14.43
2017-10-26T04:34:54.561Z,14.23
2017-10-26T04:37:22.080Z,15.20
2017-10-26T04:39:50.349Z,14.87
2017-10-26T04:42:17.872Z,14.53
2017-10-26T04:44:45.400Z,13.63
2017-10-26T04:47:12.932Z,12.97
2017-10-26T04:49:41.220Z,14.70
2017-10-26T04:52:09.501Z,11.00
2017-10-26T04:54:36.997Z,13.03
2017-10-26T04:57:04.527Z,12.90
2017-10-26T04:59:32.024Z,14.53
2017-10-26T05:01:59.518Z,14.73
2017-10-26T05:04:27.802Z,13.60
2017-10-26T05:06:55.297Z,14.13
2017-10-26T05:09:22.832Z,13.50
2017-10-26T05:11:50.338Z,15.67
2017-10-26T05:14:17.941Z,15.17
2017-10-26T05:16:45.433Z,16.37
2017-10-26T05:19:12.952Z,14.97
2017-10-26T05:21:40.467Z,16.80
2017-10-26T05:24:07.987Z,16.40
2017-10-26T05:26:35.528Z,14.80
2017-10-26T05:29:03.087Z,15.33
2017-10-26T05:31:30.614Z,14.40
2017-10-26T05:33:59.678Z,14.70
2017-10-26T05:36:27.312Z,13.77
2017-10-26T05:38:54.827Z,15.50
2017-10-26T05:41:22.333Z,15.03
2017-10-26T05:43:49.884Z,15.03
2017-10-26T05:46:17.425Z,15.10
2017-10-26T05:48:45.726Z,17.20
2017-10-26T05:51:13.241Z,16.73
2017-10-26T05:53:41.514Z,15.90
2017-10-26T05:56:10.025Z,15.40
2017-10-26T05:58:37.579Z,14.90
2017-10-26T06:01:05.098Z,13.37
2017-10-26T06:03:32.605Z,13.97
2017-10-26T06:06:00.153Z,13.97
2017-10-26T06:08:27.661Z,13.80
2017-10-26T06:10:55.166Z,13.50
2017-10-26T06:13:22.688Z,14.90
2017-10-26T06:15:50.200Z,13.80
2017-10-26T06:18:17.725Z,15.20
2017-10-26T06:20:45.993Z,14.77
2017-10-26T06:23:14.275Z,16.63
2017-10-26T06:25:42.540Z,22.30
2017-10-26T06:28:10.825Z,18.00
2017-10-26T06:30:39.113Z,19.60
2017-10-26T06:33:06.640Z,20.37
2017-10-26T06:35:34.142Z,20.10
2017-10-26T06:38:01.644Z,22.20
2017-10-26T06:40:29.247Z,21.20
2017-10-26T06:42:56.752Z,20.93
2017-10-26T06:45:24.280Z,16.77
2017-10-26T06:47:51.809Z,15.90
2017-10-26T06:50:20.114Z,17.03
2017-10-26T06:52:47.629Z,17.30
2017-10-26T06:55:15.896Z,18.90
2017-10-26T06:57:43.439Z,18.13
2017-10-26T07:00:10.948Z,17.87
2017-10-26T07:02:38.499Z,18.97
2017-10-26T07:05:06.010Z,22.33
2017-10-26T07:07:33.547Z,21.00
2017-10-26T07:10:01.069Z,19.90
2017-10-26T07:12:28.603Z,20.37
2017-10-26T07:14:56.130Z,19.23
2017-10-26T07:17:23.656Z,17.87
2017-10-26T07:19:51.162Z,21.60
2017-10-26T07:22:18.705Z,21.10
2017-10-26T07:24:46.335Z,21.47
2017-10-26T07:27:13.870Z,21.50
2017-10-26T07:29:42.139Z,22.30
2017-10-26T07:32:09.759Z,20.13
2017-10-26T07:34:37.264Z,16.80
2017-10-26T07:37:05.568Z,19.33
2017-10-26T07:39:33.073Z,21.23
2017-10-26T07:42:00.574Z,19.53
2017-10-26T07:44:28.102Z,17.60
2017-10-26T07:46:56.392Z,19.17
2017-10-26T07:49:23.932Z,17.07
2017-10-26T07:51:52.200Z,19.57
2017-10-26T07:54:19.744Z,19.80
2017-10-26T07:56:47.253Z,24.53
2017-10-26T07:59:14.758Z,17.30
2017-10-26T08:01:43.893Z,20.73
2017-10-26T08:04:12.160Z,20.23
2017-10-26T08:06:40.461Z,18.00
2017-10-26T08:09:07.956Z,20.13
2017-10-26T08:11:35.631Z,20.17
2017-10-26T08:14:03.221Z,17.23
2017-10-26T08:16:31.497Z,18.00
2017-10-26T08:18:59.007Z,17.40
2017-10-26T08:21:26.518Z,16.53
2017-10-26T08:23:54.075Z,15.70
2017-10-26T08:26:21.614Z,18.07
2017-10-26T08:28:49.859Z,17.10
2017-10-26T08:31:17.413Z,16.27
2017-10-26T08:33:44.917Z,15.53
2017-10-26T08:36:12.431Z,15.03
2017-10-26T08:38:40.036Z,15.30
2017-10-26T08:41:07.535Z,16.00
2017-10-26T08:43:35.053Z,16.13
2017-10-26T08:46:02.604Z,16.23
2017-10-26T08:48:30.913Z,14.90
2017-10-26T08:50:58.424Z,13.60
2017-10-26T08:53:26.701Z,14.23
2017-10-26T08:55:55.100Z,14.90
2017-10-26T08:58:22.636Z,12.50
2017-10-26T09:00:50.945Z,13.63
2017-10-26T09:03:18.498Z,13.63
2017-10-26T09:05:46.045Z,15.10
2017-10-26T09:08:13.545Z,13.60
2017-10-26T09:10:41.093Z,13.73
2017-10-26T09:13:08.600Z,14.77
2017-10-26T09:15:36.869Z,12.70
2017-10-26T09:18:04.421Z,11.33
2017-10-26T09:20:31.950Z,11.03
2017-10-26T09:22:59.487Z,11.27
2017-10-26T09:25:27.829Z,12.37
2017-10-26T09:27:56.126Z,12.20
2017-10-26T09:30:23.624Z,14.23
2017-10-26T09:32:56.834Z,10.87
2017-10-26T09:35:24.380Z,11.43
2017-10-26T09:37:52.648Z,11.53
2017-10-26T09:40:20.174Z,12.70
2017-10-26T09:42:47.673Z,9.90
2017-10-26T09:45:15.275Z,11.00
2017-10-26T09:47:42.768Z,10.40
2017-10-26T09:50:10.274Z,10.10
2017-10-26T09:52:38.580Z,10.43
2017-10-26T09:55:06.080Z,9.40
2017-10-26T09:57:34.366Z,9.50
2017-10-26T10:00:01.861Z,9.40
2017-10-26T10:02:29.421Z,7.70
2017-10-26T10:04:56.929Z,8.80
2017-10-26T10:07:24.430Z,8.60
2017-10-26T10:09:51.966Z,9.20
2017-10-26T10:12:20.229Z,8.53
2017-10-26T10:14:47.814Z,10.37
2017-10-26T10:17:16.077Z,8.37
2017-10-26T10:19:44.497Z,7.57
2017-10-26T10:22:11.988Z,7.83
2017-10-26T10:24:39.524Z,7.27
2017-10-26T10:27:07.023Z,7.33
2017-10-26T10:29:35.299Z,7.40
2017-10-26T10:32:02.822Z,7.40
2017-10-26T10:34:30.338Z,7.87
2017-10-26T10:36:57.853Z,7.30
2017-10-26T10:39:25.351Z,7.90
2017-10-26T10:41:52.866Z,7.13
2017-10-26T10:44:21.897Z,9.00
2017-10-26T10:46:50.160Z,9.23
2017-10-26T10:49:18.456Z,9.00
2017-10-26T10:51:46.009Z,7.97
2017-10-26T10:54:13.547Z,8.47
2017-10-26T10:56:41.824Z,9.10
2017-10-26T10:59:15.844Z,8.93
2017-10-26T11:01:43.352Z,9.43
2017-10-26T11:04:10.861Z,9.53
2017-10-26T11:06:38.387Z,8.40
2017-10-26T11:09:05.897Z,7.07
2017-10-26T11:11:33.408Z,8.27
2017-10-26T11:14:00.931Z,7.40
2017-10-26T11:16:28.452Z,6.00
2017-10-26T11:18:55.961Z,7.83
2017-10-26T11:21:23.480Z,6.17
2017-10-26T11:23:51.024Z,6.67
2017-10-26T11:26:18.560Z,6.70
2017-10-26T11:28:46.050Z,6.20
2017-10-26T11:31:13.557Z,6.10
2017-10-26T11:33:41.074Z,8.27
2017-10-26T11:36:08.577Z,10.00
2017-10-26T11:38:36.088Z,9.10
2017-10-26T11:41:03.601Z,9.13
2017-10-26T11:43:31.893Z,9.50
2017-10-26T11:46:00.172Z,7.00
2017-10-26T11:48:28.476Z,7.63
2017-10-26T11:50:55.965Z,7.03
2017-10-26T11:53:23.480Z,7.70
2017-10-26T11:55:51.001Z,7.87
2017-10-26T11:58:18.588Z,5.30
2017-10-26T12:00:46.120Z,5.80
2017-10-26T12:03:14.381Z,5.20
2017-10-26T12:05:41.876Z,5.30
2017-10-26T12:08:09.389Z,5.10
2017-10-26T12:10:36.885Z,5.60
2017-10-26T12:13:05.164Z,5.80
2017-10-26T12:15:32.697Z,8.00
2017-10-26T12:18:00.201Z,6.97
2017-10-26T12:20:27.740Z,6.27
2017-10-26T12:22:55.276Z,6.17
2017-10-26T12:25:23.682Z,5.20
2017-10-26T12:27:51.174Z,5.30
2017-10-26T12:30:18.740Z,5.17
2017-10-26T12:32:46.260Z,4.83
2017-10-26T12:35:13.807Z,4.00
2017-10-26T12:37:41.436Z,4.03
2017-10-26T12:40:08.983Z,3.90
2017-10-26T12:42:36.504Z,3.90
2017-10-26T12:45:04.044Z,4.57
2017-10-26T12:47:31.549Z,3.47
2017-10-26T12:49:59.072Z,4.00
2017-10-26T12:52:26.609Z,3.90
2017-10-26T12:54:54.890Z,3.27
2017-10-26T12:57:22.864Z,3.13
2017-10-26T12:59:50.364Z,3.60
2017-10-26T13:02:17.856Z,3.97
2017-10-26T13:04:46.163Z,3.33
2017-10-26T13:07:13.656Z,4.27
2017-10-26T13:09:41.193Z,3.63
2017-10-26T13:12:08.700Z,3.23
2017-10-26T13:14:37.012Z,3.27
2017-10-26T13:17:04.514Z,2.97
2017-10-26T13:19:32.034Z,3.97
2017-10-26T13:21:59.548Z,3.27
2017-10-26T13:24:27.847Z,3.83
2017-10-26T13:26:55.392Z,3.53
2017-10-26T13:29:23.692Z,4.07
2017-10-26T13:31:51.234Z,4.13
2017-10-26T13:34:19.502Z,3.57
2017-10-26T13:36:47.764Z,3.70
2017-10-26T13:39:16.056Z,4.10
2017-10-26T13:41:44.322Z,4.60
2017-10-26T13:44:12.616Z,4.70
2017-10-26T13:46:40.111Z,4.23
2017-10-26T13:49:07.616Z,4.40
2017-10-26T13:51:35.939Z,5.10
2017-10-26T13:54:03.471Z,5.93
2017-10-26T13:56:30.967Z,6.07
2017-10-26T13:58:58.489Z,6.00
2017-10-26T14:01:26.035Z,5.90
2017-10-26T14:03:53.539Z,6.17
2017-10-26T14:06:21.074Z,6.30
2017-10-26T14:08:48.580Z,6.00
2017-10-26T14:11:16.192Z,6.83
2017-10-26T14:13:43.709Z,6.63
2017-10-26T14:16:11.980Z,6.40
2017-10-26T14:18:40.288Z,6.60
2017-10-26T14:21:07.813Z,6.97
2017-10-26T14:23:36.102Z,6.10
2017-10-26T14:26:03.689Z,7.20
2017-10-26T14:28:31.184Z,6.70
2017-10-26T14:31:00.221Z,6.20
2017-10-26T14:33:27.729Z,5.83
2017-10-26T14:35:55.246Z,6.93
2017-10-26T14:38:22.778Z,7.40
2017-10-26T14:40:50.292Z,7.37
2017-10-26T14:43:17.866Z,5.90
2017-10-26T14:45:45.474Z,6.63
2017-10-26T14:48:13.348Z,7.60
2017-10-26T14:50:41.036Z,6.07
2017-10-26T14:53:08.797Z,7.10
2017-10-26T14:55:36.349Z,6.40
2017-10-26T14:58:03.845Z,6.90
2017-10-26T15:00:32.161Z,7.03
2017-10-26T15:02:59.672Z,6.60
2017-10-26T15:05:27.200Z,6.63
2017-10-26T15:07:54.706Z,6.87
2017-10-26T15:10:22.978Z,6.90
2017-10-26T15:12:51.298Z,7.57
2017-10-26T15:15:18.792Z,7.10
2017-10-26T15:17:46.322Z,7.73
2017-10-26T15:20:13.841Z,6.83
2017-10-26T15:22:41.344Z,7.23
2017-10-26T15:25:08.864Z,7.80
2017-10-26T15:27:36.698Z,7.60
2017-10-26T15:30:04.234Z,7.80
2017-10-26T15:32:31.744Z,7.47
2017-10-26T15:34:59.288Z,7.60
2017-10-26T15:37:27.541Z,7.50
2017-10-26T15:39:55.076Z,6.83
2017-10-26T15:42:22.581Z,7.73
2017-10-26T15:44:50.880Z,8.00
2017-10-26T15:47:18.388Z,8.33
2017-10-26T15:49:45.924Z,7.53
2017-10-26T15:52:13.421Z,8.63
2017-10-26T15:54:41.700Z,8.83
2017-10-26T15:57:10.033Z,8.50
2017-10-26T15:59:37.564Z,8.50
2017-10-26T16:02:05.123Z,9.30
2017-10-26T16:04:32.645Z,9.00
2017-10-26T16:07:00.928Z,10.27
2017-10-26T16:09:29.333Z,8.70
2017-10-26T16:11:56.836Z,8.50
2017-10-26T16:14:24.361Z,10.13
2017-10-26T16:16:51.860Z,10.43
2017-10-26T16:19:19.451Z,9.90
2017-10-26T16:21:46.964Z,9.00
2017-10-26T16:24:14.481Z,8.97
2017-10-26T16:26:42.008Z,9.50
2017-10-26T16:29:10.292Z,8.47
2017-10-26T16:31:37.812Z,9.27
2017-10-26T16:34:05.336Z,9.33
2017-10-26T16:36:32.862Z,8.80
2017-10-26T16:39:01.166Z,9.33
2017-10-26T16:41:28.653Z,9.23
2017-10-26T16:43:56.184Z,11.73
2017-10-26T16:46:23.713Z,10.63
2017-10-26T16:48:51.210Z,9.73
2017-10-26T16:51:18.744Z,9.23
2017-10-26T16:53:46.290Z,9.57
2017-10-26T16:56:13.839Z,9.33
2017-10-26T16:58:41.363Z,9.67
2017-10-26T17:01:08.904Z,10.20
2017-10-26T17:03:36.415Z,11.43
2017-10-26T17:06:03.940Z,10.30
2017-10-26T17:08:31.492Z,9.37
2017-10-26T17:10:59.013Z,9.63
2017-10-26T17:13:26.530Z,9.03
2017-10-26T17:15:55.701Z,9.53
2017-10-26T17:18:23.239Z,13.03
2017-10-26T17:20:50.865Z,10.43
2017-10-26T17:23:18.391Z,13.40
2017-10-26T17:25:45.928Z,12.40
2017-10-26T17:28:13.459Z,11.17
2017-10-26T17:30:41.000Z,10.10
2017-10-26T17:33:08.528Z,10.43
2017-10-26T17:35:36.048Z,11.10
2017-10-26T17:38:03.646Z,13.43
2017-10-26T17:40:31.176Z,11.10
2017-10-26T17:42:58.773Z,13.40
2017-10-26T17:45:27.104Z,13.00
2017-10-26T17:47:54.653Z,11.73
2017-10-26T17:50:22.256Z,11.47
2017-10-26T17:52:50.577Z,12.53
2017-10-26T17:55:18.106Z,12.10
2017-10-26T17:57:45.677Z,11.87
2017-10-26T18:00:13.234Z,11.63
2017-10-26T18:02:40.796Z,11.93
2017-10-26T18:05:08.349Z,10.77
2017-10-26T18:07:36.649Z,11.87
2017-10-26T18:10:04.156Z,12.53
2017-10-26T18:12:31.732Z,12.17
2017-10-26T18:15:00.062Z,13.07
2017-10-26T18:17:27.838Z,12.03
2017-10-26T18:19:55.449Z,11.73
2017-10-26T18:22:23.053Z,13.23
2017-10-26T18:24:50.877Z,13.43
2017-10-26T18:27:18.468Z,12.80
2017-10-26T18:29:46.039Z,13.57
2017-10-26T18:32:13.557Z,14.73
2017-10-26T18:34:41.144Z,13.27
2017-10-26T18:37:08.677Z,14.10
2017-10-26T18:39:36.263Z,12.63
2017-10-26T18:42:03.797Z,13.47
2017-10-26T18:44:31.344Z,12.80
2017-10-26T18:46:58.929Z,13.90
2017-10-26T18:49:26.498Z,15.47
2017-10-26T18:51:54.091Z,12.23
2017-10-26T18:54:23.216Z,13.83
2017-10-26T18:56:50.869Z,14.43
2017-10-26T18:59:18.389Z,14.23
2017-10-26T19:01:45.973Z,12.77
2017-10-26T19:04:13.623Z,14.40
2017-10-26T19:06:41.893Z,14.00
2017-10-26T19:09:09.472Z,13.43
2017-10-26T19:11:37.796Z,13.70
2017-10-26T19:14:05.322Z,13.90
2017-10-26T19:16:32.887Z,13.80
2017-10-26T19:19:00.407Z,13.47
2017-10-26T19:21:27.968Z,13.40
2017-10-26T19:23:55.502Z,13.90
2017-10-26T19:26:23.052Z,12.80
2017-10-26T19:28:50.589Z,14.23
2017-10-26T19:31:18.139Z,13.10
2017-10-26T19:33:45.677Z,14.17
2017-10-26T19:36:13.729Z,13.80
2017-10-26T19:38:42.077Z,13.47
2017-10-26T19:41:09.666Z,14.40
2017-10-26T19:43:37.973Z,13.47
2017-10-26T19:46:05.512Z,12.90
2017-10-26T19:48:33.786Z,14.73
2017-10-26T19:51:01.399Z,15.33
2017-10-26T19:53:29.056Z,13.70
2017-10-26T19:55:56.606Z,15.00
2017-10-26T19:58:24.150Z,15.70
2017-10-26T20:00:51.701Z,13.97
2017-10-26T20:03:19.223Z,15.10
2017-10-26T20:05:47.675Z,12.10
2017-10-26T20:08:15.255Z,13.20
2017-10-26T20:10:42.829Z,14.30
2017-10-26T20:13:10.396Z,14.40
2017-10-26T20:15:38.686Z,13.70
2017-10-26T20:18:06.260Z,15.93
2017-10-26T20:20:33.806Z,12.33
2017-10-26T20:23:01.349Z,13.90
2017-10-26T20:25:29.712Z,14.97
2017-10-26T20:27:58.034Z,14.93
2017-10-26T20:30:25.697Z,13.07
2017-10-26T20:32:53.208Z,15.13
2017-10-26T20:35:21.619Z,12.90
2017-10-26T20:37:49.198Z,13.83
2017-10-26T20:40:16.758Z,14.73
2017-10-26T20:42:44.294Z,15.97
2017-10-26T20:45:11.815Z,13.37
2017-10-26T20:47:40.148Z,14.70
2017-10-26T20:50:13.264Z,15.40
2017-10-26T20:52:46.478Z,15.00
2017-10-26T20:55:20.381Z,17.13
2017-10-26T21:00:58.861Z,15.40
2017-10-26T21:03:32.229Z,17.73
2017-10-26T21:06:05.503Z,16.83
2017-10-26T21:08:39.456Z,16.50
2017-10-26T21:11:12.552Z,17.07
2017-10-26T21:16:39.752Z,16.70
2017-10-26T21:19:08.090Z,16.17
2017-10-26T21:21:35.600Z,16.60
2017-10-26T21:24:03.912Z,15.33
2017-10-26T21:26:31.489Z,16.40
2017-10-26T21:28:59.004Z,16.70
2017-10-26T21:31:27.298Z,15.00
2017-10-26T21:33:54.808Z,16.00
2017-10-26T21:36:22.336Z,16.40
2017-10-26T21:38:49.852Z,17.33
2017-10-26T21:41:18.160Z,16.70
2017-10-26T21:43:45.681Z,15.43
2017-10-26T21:46:13.954Z,16.20
2017-10-26T21:48:42.248Z,15.37
2017-10-26T21:51:09.765Z,15.93
2017-10-26T21:53:37.328Z,15.80
2017-10-26T21:56:04.842Z,16.03
2017-10-26T21:58:32.384Z,14.27
2017-10-26T22:00:59.924Z,14.80
2017-10-26T22:03:28.203Z,13.90
2017-10-26T22:05:56.593Z,16.17
2017-10-26T22:08:24.153Z,15.70
2017-10-26T22:10:51.674Z,16.23
2017-10-26T22:13:19.262Z,16.37
2017-10-26T22:15:46.765Z,15.33
2017-10-26T22:18:14.304Z,16.27
2017-10-26T22:20:41.800Z,17.03
2017-10-26T22:23:09.417Z,16.30
2017-10-26T22:25:36.945Z,15.90
2017-10-26T22:28:05.232Z,15.63
2017-10-26T22:30:32.796Z,15.00
2017-10-26T22:33:00.321Z,14.40
2017-10-26T22:35:27.857Z,14.80
2017-10-26T22:37:55.473Z,15.30
2017-10-26T22:40:23.020Z,14.63
2017-10-26T22:42:50.608Z,16.33
2017-10-26T22:45:18.137Z,15.30
2017-10-26T22:47:45.704Z,16.37
2017-10-26T22:50:13.226Z,14.60
2017-10-26T22:52:41.509Z,14.27
2017-10-26T22:55:09.818Z,14.90
2017-10-26T22:57:37.324Z,16.03
2017-10-26T23:00:04.833Z,15.30
2017-10-26T23:02:32.382Z,14.00
2017-10-26T23:04:59.879Z,14.60
2017-10-26T23:07:27.407Z,15.33
2017-10-26T23:09:54.924Z,15.17
2017-10-26T23:12:22.471Z,14.40
2017-10-26T23:14:49.983Z,16.30
2017-10-26T23:17:17.518Z,15.10
2017-10-26T23:19:45.067Z,15.40
2017-10-26T23:22:13.341Z,14.57
2017-10-26T23:24:41.756Z,14.43
2017-10-26T23:27:09.276Z,14.03
2017-10-26T23:29:37.663Z,14.40
2017-10-26T23:32:05.923Z,16.03
2017-10-26T23:34:34.189Z,14.90
2017-10-26T23:37:02.511Z,13.90
2017-10-26T23:39:30.020Z,13.20
2017-10-26T23:41:57.618Z,13.47
2017-10-26T23:44:25.122Z,15.50
2017-10-26T23:46:52.645Z,15.20
2017-10-26T23:49:20.148Z,13.80
2017-10-26T23:51:47.685Z,13.70
2017-10-26T23:54:15.208Z,14.30
2017-10-26T23:56:42.755Z,13.20
2017-10-26T23:59:11.040Z,13.30
